sensor_id;sensor_type;location;lat;lon;timestamp;pressure;altitude;pressure_sealevel;temperature;humidity
63287;BME280;49410;55.708;37.522;2022-07-29T00:00:58;99455.66;;;17.23;nan
63287;BME280;49410;55.708;37.522;2022-07-29T00:03:23;99470.16;;;17.12;nan
63287;BME280;49410;55.708;37.522;2022-07-29T00:05:49;99472.91;;;17.12;nan
63287;BME280;49410;55.708;37.522;2022-07-29T00:08:14;99454.00;;;17.08;nan
63287;BME280;49410;55.708;37.522;2022-07-29T00:10:41;99467.84;;;17.02;nan
63287;BME280;49410;55.708;37.522;2022-07-29T00:13:07;99476.97;;;17.09;nan
63287;BME280;49410;55.708;37.522;2022-07-29T00:15:33;99458.72;;;16.95;nan
63287;BME280;49410;55.708;37.522;2022-07-29T00:17:58;99477.63;;;16.91;nan
63287;BME280;49410;55.708;37.522;2022-07-29T00:20:24;99464.25;;;16.81;nan
63287;BME280;49410;55.708;37.522;2022-07-29T00:22:50;99480.63;;;16.83;nan
63287;BME280;49410;55.708;37.522;2022-07-29T00:25:15;99467.06;;;16.68;nan
63287;BME280;49410;55.708;37.522;2022-07-29T00:27:41;99467.69;;;16.70;nan
63287;BME280;49410;55.708;37.522;2022-07-29T00:30:07;99468.53;;;16.70;nan
63287;BME280;49410;55.708;37.522;2022-07-29T00:32:32;99472.59;;;16.68;nan
63287;BME280;49410;55.708;37.522;2022-07-29T00:34:58;99470.66;;;16.68;nan
63287;BME280;49410;55.708;37.522;2022-07-29T00:37:42;99471.72;;;16.67;nan
63287;BME280;49410;55.708;37.522;2022-07-29T00:40:08;99480.00;;;16.60;nan
63287;BME280;49410;55.708;37.522;2022-07-29T00:42:47;99486.19;;;16.56;nan
63287;BME280;49410;55.708;37.522;2022-07-29T00:45:13;99471.78;;;16.47;nan
63287;BME280;49410;55.708;37.522;2022-07-29T00:47:40;99491.50;;;16.51;nan
63287;BME280;49410;55.708;37.522;2022-07-29T00:50:07;99486.63;;;16.39;nan
63287;BME280;49410;55.708;37.522;2022-07-29T00:52:35;99489.59;;;16.44;nan
63287;BME280;49410;55.708;37.522;2022-07-29T00:55:06;99489.38;;;16.39;nan
63287;BME280;49410;55.708;37.522;2022-07-29T00:57:33;99503.59;;;16.50;nan
63287;BME280;49410;55.708;37.522;2022-07-29T00:59:58;99496.59;;;16.47;nan
63287;BME280;49410;55.708;37.522;2022-07-29T01:02:24;99494.25;;;16.37;nan
63287;BME280;49410;55.708;37.522;2022-07-29T01:04:49;99488.09;;;16.35;nan
63287;BME280;49410;55.708;37.522;2022-07-29T01:07:16;99499.13;;;16.35;nan
63287;BME280;49410;55.708;37.522;2022-07-29T01:09:43;99502.13;;;16.34;nan
63287;BME280;49410;55.708;37.522;2022-07-29T01:12:10;99486.22;;;16.22;nan
63287;BME280;49410;55.708;37.522;2022-07-29T01:14:36;99498.94;;;16.17;nan
63287;BME280;49410;55.708;37.522;2022-07-29T01:17:09;99513.56;;;16.24;nan
63287;BME280;49410;55.708;37.522;2022-07-29T01:30:27;99507.19;;;16.03;nan
63287;BME280;49410;55.708;37.522;2022-07-29T01:33:00;99493.81;;;15.93;nan
63287;BME280;49410;55.708;37.522;2022-07-29T01:35:31;99513.97;;;16.01;nan
63287;BME280;49410;55.708;37.522;2022-07-29T01:38:10;99504.84;;;15.93;nan
63287;BME280;49410;55.708;37.522;2022-07-29T01:40:45;99503.38;;;15.91;nan
63287;BME280;49410;55.708;37.522;2022-07-29T01:43:22;99510.78;;;15.90;nan
63287;BME280;49410;55.708;37.522;2022-07-29T01:46:13;99510.78;;;15.90;nan
63287;BME280;49410;55.708;37.522;2022-07-29T01:48:47;99507.13;;;15.83;nan
63287;BME280;49410;55.708;37.522;2022-07-29T01:51:24;99498.69;;;15.84;nan
63287;BME280;49410;55.708;37.522;2022-07-29T01:54:02;99512.47;;;15.91;nan
63287;BME280;49410;55.708;37.522;2022-07-29T01:56:31;99502.69;;;15.82;nan
63287;BME280;49410;55.708;37.522;2022-07-29T01:58:59;99496.81;;;15.92;nan
63287;BME280;49410;55.708;37.522;2022-07-29T02:01:27;99514.59;;;15.89;nan
63287;BME280;49410;55.708;37.522;2022-07-29T02:03:56;99516.09;;;15.92;nan
63287;BME280;49410;55.708;37.522;2022-07-29T02:06:23;99498.91;;;15.90;nan
63287;BME280;49410;55.708;37.522;2022-07-29T02:08:51;99511.00;;;15.95;nan
63287;BME280;49410;55.708;37.522;2022-07-29T02:11:17;99499.09;;;15.88;nan
63287;BME280;49410;55.708;37.522;2022-07-29T02:13:44;99511.34;;;15.79;nan
63287;BME280;49410;55.708;37.522;2022-07-29T02:16:12;99500.75;;;15.82;nan
63287;BME280;49410;55.708;37.522;2022-07-29T02:18:40;99511.16;;;15.80;nan
63287;BME280;49410;55.708;37.522;2022-07-29T02:21:35;99511.41;;;15.86;nan
63287;BME280;49410;55.708;37.522;2022-07-29T02:24:01;99516.50;;;15.89;nan
63287;BME280;49410;55.708;37.522;2022-07-29T02:26:29;99527.97;;;15.92;nan
63287;BME280;49410;55.708;37.522;2022-07-29T02:28:56;99525.63;;;15.89;nan
63287;BME280;49410;55.708;37.522;2022-07-29T02:31:25;99522.25;;;15.87;nan
63287;BME280;49410;55.708;37.522;2022-07-29T02:33:52;99528.59;;;15.88;nan
63287;BME280;49410;55.708;37.522;2022-07-29T02:36:21;99520.09;;;15.89;nan
63287;BME280;49410;55.708;37.522;2022-07-29T02:38:48;99525.63;;;15.89;nan
63287;BME280;49410;55.708;37.522;2022-07-29T02:41:18;99515.22;;;15.84;nan
63287;BME280;49410;55.708;37.522;2022-07-29T02:43:48;99515.16;;;15.78;nan
63287;BME280;49410;55.708;37.522;2022-07-29T02:46:20;99521.97;;;15.82;nan
63287;BME280;49410;55.708;37.522;2022-07-29T02:48:57;99522.69;;;15.91;nan
63287;BME280;49410;55.708;37.522;2022-07-29T02:51:28;99520.34;;;15.94;nan
63287;BME280;49410;55.708;37.522;2022-07-29T02:53:59;99510.38;;;15.93;nan
63287;BME280;49410;55.708;37.522;2022-07-29T02:56:28;99523.31;;;15.99;nan
63287;BME280;49410;55.708;37.522;2022-07-29T02:59:03;99516.31;;;16.04;nan
63287;BME280;49410;55.708;37.522;2022-07-29T03:01:31;99522.50;;;16.12;nan
63287;BME280;49410;55.708;37.522;2022-07-29T03:04:01;99509.97;;;16.23;nan
63287;BME280;49410;55.708;37.522;2022-07-29T03:06:28;99516.16;;;16.32;nan
63287;BME280;49410;55.708;37.522;2022-07-29T03:08:57;99508.06;;;16.37;nan
63287;BME280;49410;55.708;37.522;2022-07-29T03:11:24;99515.69;;;16.42;nan
63287;BME280;49410;55.708;37.522;2022-07-29T03:13:50;99519.28;;;16.56;nan
63287;BME280;49410;55.708;37.522;2022-07-29T03:16:18;99520.34;;;16.55;nan
63287;BME280;49410;55.708;37.522;2022-07-29T03:18:44;99529.28;;;16.70;nan
63287;BME280;49410;55.708;37.522;2022-07-29T03:21:10;99526.28;;;16.72;nan
63287;BME280;49410;55.708;37.522;2022-07-29T03:23:35;99515.06;;;16.73;nan
63287;BME280;49410;55.708;37.522;2022-07-29T03:26:01;99516.06;;;16.86;nan
63287;BME280;49410;55.708;37.522;2022-07-29T03:28:26;99510.88;;;17.30;nan
63287;BME280;49410;55.708;37.522;2022-07-29T03:30:53;99614.19;;;17.88;nan
63287;BME280;49410;55.708;37.522;2022-07-29T03:40:42;99625.03;;;20.10;nan
63287;BME280;49410;55.708;37.522;2022-07-29T03:43:11;99628.53;;;20.78;nan
63287;BME280;49410;55.708;37.522;2022-07-29T03:45:38;99617.81;;;21.06;nan
63287;BME280;49410;55.708;37.522;2022-07-29T03:48:09;99624.56;;;21.22;nan
63287;BME280;49410;55.708;37.522;2022-07-29T03:55:29;99628.16;;;21.58;nan
63287;BME280;49410;55.708;37.522;2022-07-29T03:57:57;99623.59;;;21.40;nan
63287;BME280;49410;55.708;37.522;2022-07-29T04:00:25;99622.00;;;21.80;nan
63287;BME280;49410;55.708;37.522;2022-07-29T04:02:52;99636.03;;;22.14;nan
63287;BME280;49410;55.708;37.522;2022-07-29T04:05:18;99651.25;;;22.23;nan
63287;BME280;49410;55.708;37.522;2022-07-29T04:07:45;99624.19;;;22.64;nan
63287;BME280;49410;55.708;37.522;2022-07-29T04:10:11;99627.09;;;22.87;nan
63287;BME280;49410;55.708;37.522;2022-07-29T04:12:37;99629.09;;;22.74;nan
63287;BME280;49410;55.708;37.522;2022-07-29T04:17:29;99642.19;;;22.57;nan
63287;BME280;49410;55.708;37.522;2022-07-29T04:22:19;99635.25;;;22.30;nan
63287;BME280;49410;55.708;37.522;2022-07-29T04:32:01;99644.16;;;21.51;nan
63287;BME280;49410;55.708;37.522;2022-07-29T04:34:26;99638.84;;;21.61;nan
63287;BME280;49410;55.708;37.522;2022-07-29T04:36:52;99646.09;;;21.62;nan
63287;BME280;49410;55.708;37.522;2022-07-29T04:39:17;99646.16;;;21.79;nan
63287;BME280;49410;55.708;37.522;2022-07-29T04:41:44;99649.81;;;21.68;nan
63287;BME280;49410;55.708;37.522;2022-07-29T04:44:09;99657.72;;;21.59;nan
63287;BME280;49410;55.708;37.522;2022-07-29T04:49:01;99664.34;;;21.70;nan
63287;BME280;49410;55.708;37.522;2022-07-29T04:51:27;99658.78;;;21.70;nan
63287;BME280;49410;55.708;37.522;2022-07-29T04:56:18;99649.50;;;22.05;nan
63287;BME280;49410;55.708;37.522;2022-07-29T04:58:43;99642.50;;;22.31;nan
63287;BME280;49410;55.708;37.522;2022-07-29T05:01:09;99651.31;;;22.40;nan
63287;BME280;49410;55.708;37.522;2022-07-29T05:06:00;99652.06;;;22.99;nan
63287;BME280;49410;55.708;37.522;2022-07-29T05:08:25;99649.38;;;23.04;nan
63287;BME280;49410;55.708;37.522;2022-07-29T05:10:51;99650.56;;;23.42;nan
63287;BME280;49410;55.708;37.522;2022-07-29T05:18:07;99663.59;;;23.76;nan
63287;BME280;49410;55.708;37.522;2022-07-29T05:23:00;99657.25;;;24.25;nan
63287;BME280;49410;55.708;37.522;2022-07-29T05:25:27;99647.41;;;24.44;nan
63287;BME280;49410;55.708;37.522;2022-07-29T05:27:54;99647.25;;;24.56;nan
63287;BME280;49410;55.708;37.522;2022-07-29T05:30:20;99655.06;;;24.81;nan
63287;BME280;49410;55.708;37.522;2022-07-29T05:32:46;99646.91;;;25.07;nan
63287;BME280;49410;55.708;37.522;2022-07-29T05:35:12;99636.47;;;25.35;nan
63287;BME280;49410;55.708;37.522;2022-07-29T05:37:38;99648.00;;;25.44;nan
63287;BME280;49410;55.708;37.522;2022-07-29T05:40:05;99632.25;;;25.33;nan
63287;BME280;49410;55.708;37.522;2022-07-29T05:42:30;99616.44;;;24.78;nan
63287;BME280;49410;55.708;37.522;2022-07-29T05:44:56;99651.94;;;25.10;nan
63287;BME280;49410;55.708;37.522;2022-07-29T05:47:22;99632.34;;;25.05;nan
63287;BME280;49410;55.708;37.522;2022-07-29T05:49:48;99637.72;;;25.12;nan
63287;BME280;49410;55.708;37.522;2022-07-29T05:52:14;99641.41;;;25.23;nan
63287;BME280;49410;55.708;37.522;2022-07-29T05:57:05;99618.72;;;25.62;nan
63287;BME280;49410;55.708;37.522;2022-07-29T06:04:25;99638.56;;;25.50;nan
63287;BME280;49410;55.708;37.522;2022-07-29T06:09:16;99628.59;;;25.32;nan
63287;BME280;49410;55.708;37.522;2022-07-29T06:11:41;99629.63;;;25.21;nan
63287;BME280;49410;55.708;37.522;2022-07-29T06:16:32;99640.19;;;25.41;nan
63287;BME280;49410;55.708;37.522;2022-07-29T06:18:58;99632.53;;;25.74;nan
63287;BME280;49410;55.708;37.522;2022-07-29T06:21:23;99638.91;;;25.64;nan
63287;BME280;49410;55.708;37.522;2022-07-29T06:26:14;99630.66;;;25.42;nan
63287;BME280;49410;55.708;37.522;2022-07-29T06:38:22;99637.34;;;24.43;nan
63287;BME280;49410;55.708;37.522;2022-07-29T06:40:47;99623.22;;;24.06;nan
63287;BME280;49410;55.708;37.522;2022-07-29T06:43:26;99630.84;;;24.38;nan
63287;BME280;49410;55.708;37.522;2022-07-29T06:45:52;99527.09;;;24.29;nan
63287;BME280;49410;55.708;37.522;2022-07-29T06:48:17;99632.06;;;24.47;nan
63287;BME280;49410;55.708;37.522;2022-07-29T06:50:43;99623.63;;;24.69;nan
63287;BME280;49410;55.708;37.522;2022-07-29T06:53:08;99619.34;;;24.07;nan
63287;BME280;49410;55.708;37.522;2022-07-29T06:55:34;99505.25;;;24.21;nan
63287;BME280;49410;55.708;37.522;2022-07-29T06:57:59;99517.03;;;24.28;nan
63287;BME280;49410;55.708;37.522;2022-07-29T07:02:50;99630.06;;;24.42;nan
63287;BME280;49410;55.708;37.522;2022-07-29T07:05:16;99521.59;;;24.07;nan
63287;BME280;49410;55.708;37.522;2022-07-29T07:07:41;99528.72;;;23.70;nan
63287;BME280;49410;55.708;37.522;2022-07-29T07:10:07;99526.97;;;23.91;nan
63287;BME280;49410;55.708;37.522;2022-07-29T07:12:33;99511.59;;;24.11;nan
63287;BME280;49410;55.708;37.522;2022-07-29T07:14:58;99513.53;;;24.10;nan
63287;BME280;49410;55.708;37.522;2022-07-29T07:17:24;99511.50;;;23.78;nan
63287;BME280;49410;55.708;37.522;2022-07-29T07:19:49;99530.81;;;24.07;nan
63287;BME280;49410;55.708;37.522;2022-07-29T07:24:40;99651.25;;;24.38;nan
63287;BME280;49410;55.708;37.522;2022-07-29T07:29:31;99644.34;;;24.46;nan
63287;BME280;49410;55.708;37.522;2022-07-29T07:31:57;99645.34;;;24.62;nan
63287;BME280;49410;55.708;37.522;2022-07-29T07:34:23;99645.81;;;24.54;nan
63287;BME280;49410;55.708;37.522;2022-07-29T07:39:13;99645.97;;;24.14;nan
63287;BME280;49410;55.708;37.522;2022-07-29T07:41:39;99523.19;;;23.97;nan
63287;BME280;49410;55.708;37.522;2022-07-29T07:44:04;99526.16;;;23.91;nan
63287;BME280;49410;55.708;37.522;2022-07-29T07:46:31;99532.94;;;23.95;nan
63287;BME280;49410;55.708;37.522;2022-07-29T07:48:56;99525.44;;;23.78;nan
63287;BME280;49410;55.708;37.522;2022-07-29T07:51:22;99536.81;;;23.71;nan
63287;BME280;49410;55.708;37.522;2022-07-29T07:53:47;99530.00;;;23.62;nan
63287;BME280;49410;55.708;37.522;2022-07-29T07:56:16;99533.44;;;23.47;nan
63287;BME280;49410;55.708;37.522;2022-07-29T07:58:42;99543.66;;;23.36;nan
63287;BME280;49410;55.708;37.522;2022-07-29T08:01:08;99553.94;;;23.36;nan
63287;BME280;49410;55.708;37.522;2022-07-29T08:03:34;99558.31;;;23.49;nan
63287;BME280;49410;55.708;37.522;2022-07-29T08:06:00;99542.59;;;23.20;nan
63287;BME280;49410;55.708;37.522;2022-07-29T08:08:25;99555.81;;;23.30;nan
63287;BME280;49410;55.708;37.522;2022-07-29T08:10:51;99535.22;;;23.53;nan
63287;BME280;49410;55.708;37.522;2022-07-29T08:13:26;99534.34;;;23.53;nan
63287;BME280;49410;55.708;37.522;2022-07-29T08:15:56;99547.41;;;23.69;nan
63287;BME280;49410;55.708;37.522;2022-07-29T08:18:24;99540.25;;;23.79;nan
63287;BME280;49410;55.708;37.522;2022-07-29T08:20:50;99532.94;;;23.95;nan
63287;BME280;49410;55.708;37.522;2022-07-29T08:23:15;99535.38;;;24.18;nan
63287;BME280;49410;55.708;37.522;2022-07-29T08:25:41;99544.16;;;24.00;nan
63287;BME280;49410;55.708;37.522;2022-07-29T08:28:07;99545.63;;;24.08;nan
63287;BME280;49410;55.708;37.522;2022-07-29T08:30:34;99543.84;;;23.74;nan
63287;BME280;49410;55.708;37.522;2022-07-29T08:33:00;99564.81;;;23.54;nan
63287;BME280;49410;55.708;37.522;2022-07-29T08:35:26;99535.03;;;23.60;nan
63287;BME280;49410;55.708;37.522;2022-07-29T08:37:52;99539.16;;;23.80;nan
63287;BME280;49410;55.708;37.522;2022-07-29T08:40:19;99536.47;;;24.12;nan
63287;BME280;49410;55.708;37.522;2022-07-29T08:42:45;99638.34;;;24.32;nan
63287;BME280;49410;55.708;37.522;2022-07-29T08:45:12;99628.47;;;24.52;nan
63287;BME280;49410;55.708;37.522;2022-07-29T08:47:38;99639.72;;;24.57;nan
63287;BME280;49410;55.708;37.522;2022-07-29T08:50:08;99529.75;;;24.41;nan
63287;BME280;49410;55.708;37.522;2022-07-29T08:52:39;99513.38;;;23.72;nan
63287;BME280;49410;55.708;37.522;2022-07-29T08:55:06;99533.34;;;23.86;nan
63287;BME280;49410;55.708;37.522;2022-07-29T08:57:33;99529.34;;;23.77;nan
63287;BME280;49410;55.708;37.522;2022-07-29T09:00:01;99539.69;;;23.54;nan
63287;BME280;49410;55.708;37.522;2022-07-29T09:02:29;99532.88;;;23.67;nan
63287;BME280;49410;55.708;37.522;2022-07-29T09:05:00;99523.75;;;23.50;nan
63287;BME280;49410;55.708;37.522;2022-07-29T09:07:27;99537.94;;;23.48;nan
63287;BME280;49410;55.708;37.522;2022-07-29T09:09:53;99535.34;;;23.64;nan
63287;BME280;49410;55.708;37.522;2022-07-29T09:12:19;99535.63;;;23.89;nan
63287;BME280;49410;55.708;37.522;2022-07-29T09:14:47;99531.34;;;24.04;nan
63287;BME280;49410;55.708;37.522;2022-07-29T09:17:14;99523.97;;;24.20;nan
63287;BME280;49410;55.708;37.522;2022-07-29T09:19:42;99528.13;;;24.17;nan
63287;BME280;49410;55.708;37.522;2022-07-29T09:22:07;99519.28;;;24.26;nan
63287;BME280;49410;55.708;37.522;2022-07-29T09:24:42;99536.56;;;24.23;nan
63287;BME280;49410;55.708;37.522;2022-07-29T09:29:45;99539.66;;;23.77;nan
63287;BME280;49410;55.708;37.522;2022-07-29T09:32:10;99542.00;;;23.85;nan
63287;BME280;49410;55.708;37.522;2022-07-29T09:34:37;99538.16;;;23.91;nan
63287;BME280;49410;55.708;37.522;2022-07-29T09:37:03;99533.16;;;23.93;nan
63287;BME280;49410;55.708;37.522;2022-07-29T09:39:37;99531.78;;;23.68;nan
63287;BME280;49410;55.708;37.522;2022-07-29T09:42:11;99546.44;;;23.58;nan
63287;BME280;49410;55.708;37.522;2022-07-29T09:44:50;99539.78;;;23.20;nan
63287;BME280;49410;55.708;37.522;2022-07-29T09:47:17;99536.06;;;23.15;nan
63287;BME280;49410;55.708;37.522;2022-07-29T09:49:57;99546.69;;;23.57;nan
63287;BME280;49410;55.708;37.522;2022-07-29T09:52:26;99553.75;;;23.87;nan
63287;BME280;49410;55.708;37.522;2022-07-29T09:54:52;99533.25;;;23.98;nan
63287;BME280;49410;55.708;37.522;2022-07-29T09:57:27;99545.31;;;24.04;nan
63287;BME280;49410;55.708;37.522;2022-07-29T10:00:07;99548.94;;;24.32;nan
63287;BME280;49410;55.708;37.522;2022-07-29T10:02:38;99548.13;;;24.37;nan
63287;BME280;49410;55.708;37.522;2022-07-29T10:05:08;99534.88;;;24.22;nan
63287;BME280;49410;55.708;37.522;2022-07-29T10:07:44;99545.53;;;24.25;nan
63287;BME280;49410;55.708;37.522;2022-07-29T10:10:10;99537.25;;;24.08;nan
63287;BME280;49410;55.708;37.522;2022-07-29T10:12:49;99542.31;;;23.88;nan
63287;BME280;49410;55.708;37.522;2022-07-29T10:15:15;99542.50;;;23.82;nan
63287;BME280;49410;55.708;37.522;2022-07-29T10:17:41;99550.25;;;23.52;nan
63287;BME280;49410;55.708;37.522;2022-07-29T10:20:08;99553.25;;;23.46;nan
63287;BME280;49410;55.708;37.522;2022-07-29T10:22:34;99529.50;;;23.43;nan
63287;BME280;49410;55.708;37.522;2022-07-29T10:24:59;99525.19;;;23.57;nan
63287;BME280;49410;55.708;37.522;2022-07-29T10:27:25;99535.47;;;23.74;nan
63287;BME280;49410;55.708;37.522;2022-07-29T10:29:50;99527.09;;;23.74;nan
63287;BME280;49410;55.708;37.522;2022-07-29T10:32:26;99536.09;;;23.81;nan
63287;BME280;49410;55.708;37.522;2022-07-29T10:43:31;99520.03;;;23.94;nan
63287;BME280;49410;55.708;37.522;2022-07-29T10:46:01;99522.22;;;24.14;nan
63287;BME280;49410;55.708;37.522;2022-07-29T10:48:28;99503.66;;;24.30;nan
63287;BME280;49410;55.708;37.522;2022-07-29T10:51:04;99521.81;;;24.27;nan
63287;BME280;49410;55.708;37.522;2022-07-29T10:56:32;99521.97;;;24.15;nan
63287;BME280;49410;55.708;37.522;2022-07-29T10:59:30;99525.28;;;24.12;nan
63287;BME280;49410;55.708;37.522;2022-07-29T11:01:56;99534.13;;;23.82;nan
63287;BME280;49410;55.708;37.522;2022-07-29T11:05:02;99538.53;;;23.95;nan
63287;BME280;49410;55.708;37.522;2022-07-29T11:07:27;99532.31;;;23.93;nan
63287;BME280;49410;55.708;37.522;2022-07-29T11:15:05;99533.69;;;23.68;nan
63287;BME280;49410;55.708;37.522;2022-07-29T11:20:41;99548.03;;;23.77;nan
63287;BME280;49410;55.708;37.522;2022-07-29T11:23:25;99546.44;;;23.81;nan
63287;BME280;49410;55.708;37.522;2022-07-29T11:28:48;99544.50;;;23.59;nan
63287;BME280;49410;55.708;37.522;2022-07-29T11:31:16;99527.16;;;23.57;nan
63287;BME280;49410;55.708;37.522;2022-07-29T11:33:45;99534.13;;;23.54;nan
63287;BME280;49410;55.708;37.522;2022-07-29T11:36:12;99537.94;;;23.70;nan
63287;BME280;49410;55.708;37.522;2022-07-29T11:38:38;99540.66;;;23.65;nan
63287;BME280;49410;55.708;37.522;2022-07-29T11:41:23;99535.47;;;23.74;nan
63287;BME280;49410;55.708;37.522;2022-07-29T11:43:58;99545.78;;;23.96;nan
63287;BME280;49410;55.708;37.522;2022-07-29T11:49:10;99547.31;;;24.36;nan
63287;BME280;49410;55.708;37.522;2022-07-29T11:51:37;99538.78;;;24.53;nan
63287;BME280;49410;55.708;37.522;2022-07-29T11:54:04;99536.75;;;24.76;nan
63287;BME280;49410;55.708;37.522;2022-07-29T11:56:34;99556.09;;;24.83;nan
63287;BME280;49410;55.708;37.522;2022-07-29T11:59:05;99524.84;;;24.91;nan
63287;BME280;49410;55.708;37.522;2022-07-29T12:01:31;99538.81;;;24.91;nan
63287;BME280;49410;55.708;37.522;2022-07-29T12:04:07;99519.41;;;24.74;nan
63287;BME280;49410;55.708;37.522;2022-07-29T12:06:36;99522.09;;;24.96;nan
63287;BME280;49410;55.708;37.522;2022-07-29T12:09:08;99526.56;;;24.97;nan
63287;BME280;49410;55.708;37.522;2022-07-29T12:11:35;99487.53;;;24.75;nan
63287;BME280;49410;55.708;37.522;2022-07-29T12:14:01;99497.91;;;24.79;nan
63287;BME280;49410;55.708;37.522;2022-07-29T12:16:36;99515.13;;;25.04;nan
63287;BME280;49410;55.708;37.522;2022-07-29T12:19:03;99517.97;;;25.14;nan
63287;BME280;49410;55.708;37.522;2022-07-29T12:21:49;99507.31;;;25.06;nan
63287;BME280;49410;55.708;37.522;2022-07-29T12:24:15;99514.13;;;25.20;nan
63287;BME280;49410;55.708;37.522;2022-07-29T12:26:56;99520.28;;;25.22;nan
63287;BME280;49410;55.708;37.522;2022-07-29T12:29:23;99520.53;;;25.16;nan
63287;BME280;49410;55.708;37.522;2022-07-29T12:31:53;99519.81;;;24.93;nan
63287;BME280;49410;55.708;37.522;2022-07-29T12:34:20;99509.16;;;24.90;nan
63287;BME280;49410;55.708;37.522;2022-07-29T12:36:48;99510.09;;;25.06;nan
63287;BME280;49410;55.708;37.522;2022-07-29T12:39:15;99509.16;;;24.90;nan
63287;BME280;49410;55.708;37.522;2022-07-29T12:41:41;99517.97;;;25.14;nan
63287;BME280;49410;55.708;37.522;2022-07-29T12:44:07;99514.63;;;25.12;nan
63287;BME280;49410;55.708;37.522;2022-07-29T12:46:32;99505.50;;;25.32;nan
63287;BME280;49410;55.708;37.522;2022-07-29T12:51:31;99506.44;;;25.00;nan
63287;BME280;49410;55.708;37.522;2022-07-29T12:54:10;99504.66;;;24.84;nan
63287;BME280;49410;55.708;37.522;2022-07-29T12:56:40;99506.88;;;24.76;nan
63287;BME280;49410;55.708;37.522;2022-07-29T12:59:16;99519.41;;;24.74;nan
63287;BME280;49410;55.708;37.522;2022-07-29T13:01:44;99512.56;;;24.59;nan
63287;BME280;49410;55.708;37.522;2022-07-29T13:04:09;99507.81;;;24.60;nan
63287;BME280;49410;55.708;37.522;2022-07-29T13:06:39;99508.13;;;24.63;nan
63287;BME280;49410;55.708;37.522;2022-07-29T13:09:18;99515.63;;;24.58;nan
63287;BME280;49410;55.708;37.522;2022-07-29T13:11:46;99516.69;;;24.52;nan
63287;BME280;49410;55.708;37.522;2022-07-29T13:14:28;99506.34;;;24.52;nan
63287;BME280;49410;55.708;37.522;2022-07-29T13:17:01;99518.47;;;24.63;nan
63287;BME280;49410;55.708;37.522;2022-07-29T13:19:34;99522.78;;;24.76;nan
63287;BME280;49410;55.708;37.522;2022-07-29T13:22:00;99516.84;;;24.67;nan
63287;BME280;49410;55.708;37.522;2022-07-29T13:24:26;99519.97;;;24.76;nan
63287;BME280;49410;55.708;37.522;2022-07-29T13:27:09;99512.47;;;24.81;nan
63287;BME280;49410;55.708;37.522;2022-07-29T13:29:35;99518.94;;;24.87;nan
63287;BME280;49410;55.708;37.522;2022-07-29T13:32:02;99511.97;;;24.90;nan
63287;BME280;49410;55.708;37.522;2022-07-29T13:34:28;99524.47;;;24.77;nan
63287;BME280;49410;55.708;37.522;2022-07-29T13:36:53;99512.47;;;24.76;nan
63287;BME280;49410;55.708;37.522;2022-07-29T13:39:19;99500.47;;;24.86;nan
63287;BME280;49410;55.708;37.522;2022-07-29T13:41:44;99506.31;;;24.79;nan
63287;BME280;49410;55.708;37.522;2022-07-29T13:44:10;99506.28;;;24.74;nan
63287;BME280;49410;55.708;37.522;2022-07-29T13:46:35;99507.41;;;24.73;nan
63287;BME280;49410;55.708;37.522;2022-07-29T13:49:01;99508.78;;;24.71;nan
63287;BME280;49410;55.708;37.522;2022-07-29T13:51:26;99508.22;;;24.74;nan
63287;BME280;49410;55.708;37.522;2022-07-29T13:53:52;99510.38;;;24.61;nan
63287;BME280;49410;55.708;37.522;2022-07-29T13:56:17;99498.16;;;24.73;nan
63287;BME280;49410;55.708;37.522;2022-07-29T13:58:43;99506.28;;;24.74;nan
63287;BME280;49410;55.708;37.522;2022-07-29T14:01:08;99507.75;;;24.82;nan
63287;BME280;49410;55.708;37.522;2022-07-29T14:03:34;99509.47;;;24.93;nan
63287;BME280;49410;55.708;37.522;2022-07-29T14:05:59;99491.78;;;24.77;nan
63287;BME280;49410;55.708;37.522;2022-07-29T14:08:25;99505.53;;;24.89;nan
63287;BME280;49410;55.708;37.522;2022-07-29T14:10:51;99510.84;;;24.91;nan
63287;BME280;49410;55.708;37.522;2022-07-29T14:13:17;99488.72;;;24.84;nan
63287;BME280;49410;55.708;37.522;2022-07-29T14:15:42;99506.94;;;24.87;nan
63287;BME280;49410;55.708;37.522;2022-07-29T14:18:07;99501.28;;;24.76;nan
63287;BME280;49410;55.708;37.522;2022-07-29T14:20:33;99497.38;;;24.77;nan
63287;BME280;49410;55.708;37.522;2022-07-29T14:22:58;99496.94;;;24.63;nan
63287;BME280;49410;55.708;37.522;2022-07-29T14:25:24;99506.53;;;24.73;nan
63287;BME280;49410;55.708;37.522;2022-07-29T14:28:19;99504.31;;;24.75;nan
63287;BME280;49410;55.708;37.522;2022-07-29T14:30:45;99502.00;;;24.66;nan
63287;BME280;49410;55.708;37.522;2022-07-29T14:33:10;99498.59;;;24.59;nan
63287;BME280;49410;55.708;37.522;2022-07-29T14:35:36;99487.38;;;24.54;nan
63287;BME280;49410;55.708;37.522;2022-07-29T14:38:01;99490.44;;;24.53;nan
63287;BME280;49410;55.708;37.522;2022-07-29T14:40:27;99493.50;;;24.51;nan
63287;BME280;49410;55.708;37.522;2022-07-29T14:46:08;99491.31;;;24.58;nan
63287;BME280;49410;55.708;37.522;2022-07-29T14:48:34;99485.44;;;24.55;nan
63287;BME280;49410;55.708;37.522;2022-07-29T14:51:00;99498.31;;;24.61;nan
63287;BME280;49410;55.708;37.522;2022-07-29T14:53:25;99490.03;;;24.71;nan
63287;BME280;49410;55.708;37.522;2022-07-29T14:55:51;99471.00;;;24.68;nan
63287;BME280;49410;55.708;37.522;2022-07-29T14:58:16;99483.34;;;24.72;nan
63287;BME280;49410;55.708;37.522;2022-07-29T15:00:42;99479.06;;;24.64;nan
63287;BME280;49410;55.708;37.522;2022-07-29T15:03:08;99485.16;;;24.56;nan
63287;BME280;49410;55.708;37.522;2022-07-29T15:05:36;99486.53;;;24.54;nan
63287;BME280;49410;55.708;37.522;2022-07-29T15:08:02;99477.06;;;24.55;nan
63287;BME280;49410;55.708;37.522;2022-07-29T15:10:27;99488.03;;;24.66;nan
63287;BME280;49410;55.708;37.522;2022-07-29T15:12:54;99498.91;;;24.63;nan